createdAt,value
2019-03-03T00:01:31.714Z,98217.34
2019-03-03T00:04:01.655Z,98220.70
2019-03-03T00:06:31.626Z,98219.58
2019-03-03T00:09:01.815Z,98218.31
2019-03-03T00:11:31.725Z,98214.56
2019-03-03T00:14:01.682Z,98216.45
2019-03-03T00:16:31.591Z,98213.62
2019-03-03T00:19:01.601Z,98214.84
2019-03-03T00:21:31.595Z,98207.48
2019-03-03T00:24:01.544Z,98211.00
2019-03-03T00:26:31.448Z,98198.59
2019-03-03T00:29:01.370Z,98187.66
2019-03-03T00:31:37.923Z,98189.58
2019-03-03T00:34:08.002Z,98186.64
2019-03-03T00:36:55.509Z,98188.90
2019-03-03T00:39:44.374Z,98187.14
2019-03-03T00:42:40.608Z,98193.81
2019-03-03T00:45:37.405Z,98187.58
2019-03-03T00:48:32.471Z,98193.03
2019-03-03T00:51:18.656Z,98185.38
2019-03-03T00:54:10.422Z,98187.86
2019-03-03T00:56:46.494Z,98189.95
2019-03-03T00:59:38.261Z,98188.97
2019-03-03T01:02:24.450Z,98185.52
2019-03-03T01:05:04.335Z,98188.34
2019-03-03T01:07:56.456Z,98180.39
2019-03-03T01:10:44.330Z,98174.48
2019-03-03T01:13:43.293Z,98168.14
2019-03-03T01:16:30.786Z,98167.00
2019-03-03T01:19:22.992Z,98172.92
2019-03-03T01:22:17.659Z,98175.41
2019-03-03T01:25:04.545Z,98173.20
2019-03-03T01:27:34.473Z,98175.80
2019-03-03T01:30:07.871Z,98170.38
2019-03-03T01:32:37.775Z,98180.25
2019-03-03T01:35:08.806Z,98183.38
2019-03-03T01:37:39.061Z,98184.20
2019-03-03T01:40:09.685Z,98186.98
2019-03-03T01:42:39.854Z,98187.86
2019-03-03T01:45:11.580Z,98192.09
2019-03-03T01:47:41.554Z,98187.27
2019-03-03T01:50:11.860Z,98186.43
2019-03-03T01:52:41.918Z,98185.14
2019-03-03T01:55:11.982Z,98189.91
2019-03-03T01:57:42.221Z,98186.87
2019-03-03T02:00:21.086Z,98189.72
2019-03-03T02:02:51.205Z,98179.89
2019-03-03T02:05:21.291Z,98174.91
2019-03-03T02:07:51.274Z,98169.07
2019-03-03T02:10:23.678Z,98169.29
2019-03-03T02:12:53.779Z,98175.49
2019-03-03T02:15:23.805Z,98171.74
2019-03-03T02:17:53.805Z,98163.22
2019-03-03T02:20:23.801Z,98166.66
2019-03-03T02:22:53.806Z,98163.66
2019-03-03T02:25:24.013Z,98156.18
2019-03-03T02:27:53.910Z,98157.94
2019-03-03T02:30:24.924Z,98151.22
2019-03-03T02:32:54.917Z,98151.17
2019-03-03T02:35:25.015Z,98144.18
2019-03-03T02:37:54.943Z,98139.17
2019-03-03T02:40:25.047Z,98126.55
2019-03-03T02:42:54.971Z,98121.88
2019-03-03T02:45:25.344Z,98124.16
2019-03-03T02:47:55.323Z,98119.96
2019-03-03T02:50:25.830Z,98109.83
2019-03-03T02:52:55.732Z,98109.34
2019-03-03T02:55:25.949Z,98113.30
2019-03-03T02:57:55.876Z,98109.81
2019-03-03T03:00:26.277Z,98105.48
2019-03-03T03:02:57.756Z,98104.08
2019-03-03T03:05:52.885Z,98093.97
2019-03-03T03:08:30.288Z,98095.34
2019-03-03T03:11:10.952Z,98092.16
2019-03-03T03:13:46.850Z,98084.96
2019-03-03T03:16:31.736Z,98083.97
2019-03-03T03:19:08.690Z,98074.27
2019-03-03T03:21:56.243Z,98071.92
2019-03-03T03:24:53.115Z,98069.51
2019-03-03T03:27:49.516Z,98070.89
2019-03-03T03:30:53.584Z,98079.68
2019-03-03T03:33:38.730Z,98076.09
2019-03-03T03:36:36.931Z,98086.55
2019-03-03T03:39:25.673Z,98079.50
2019-03-03T03:42:05.819Z,98084.58
2019-03-03T03:44:46.639Z,98080.19
2019-03-03T03:47:37.226Z,98075.95
2019-03-03T03:50:16.360Z,98079.67
2019-03-03T03:53:08.350Z,98077.41
2019-03-03T03:55:59.045Z,98076.05
2019-03-03T03:58:33.828Z,98077.67
2019-03-03T04:01:25.548Z,98072.94
2019-03-03T04:04:26.491Z,98062.20
2019-03-03T04:07:02.656Z,98059.36
2019-03-03T04:09:48.481Z,98057.97
2019-03-03T04:12:35.681Z,98052.31
2019-03-03T04:15:14.269Z,98037.94
2019-03-03T04:17:59.218Z,98044.27
2019-03-03T04:20:46.456Z,98051.08
2019-03-03T04:23:35.306Z,98051.84
2019-03-03T04:26:29.989Z,98052.95
2019-03-03T04:29:24.559Z,98045.69
2019-03-03T04:32:22.209Z,98045.70
2019-03-03T04:34:57.472Z,98047.73
2019-03-03T04:37:40.033Z,98040.80
2019-03-03T04:40:14.587Z,98048.52
2019-03-03T04:43:02.243Z,98045.50
2019-03-03T04:45:36.580Z,98051.14
2019-03-03T04:48:21.767Z,98058.05
2019-03-03T04:51:14.258Z,98047.02
2019-03-03T04:54:01.559Z,98051.61
2019-03-03T04:56:53.557Z,98049.20
2019-03-03T05:00:00.352Z,98052.11
2019-03-03T05:02:47.527Z,98044.52
2019-03-03T05:05:34.883Z,98047.27
2019-03-03T05:08:09.801Z,98042.75
2019-03-03T05:10:58.547Z,98037.48
2019-03-03T05:13:47.393Z,98041.23
2019-03-03T05:16:31.527Z,98044.67
2019-03-03T05:19:23.386Z,98045.80
2019-03-03T05:21:53.271Z,98042.11
2019-03-03T05:24:23.172Z,98048.38
2019-03-03T05:26:53.135Z,98050.55
2019-03-03T05:29:23.043Z,98048.41
2019-03-03T05:31:53.007Z,98044.67
2019-03-03T05:34:22.904Z,98048.33
2019-03-03T05:36:52.779Z,98045.89
2019-03-03T05:39:22.772Z,98052.02
2019-03-03T05:41:52.660Z,98042.76
2019-03-03T05:44:22.801Z,98039.27
2019-03-03T05:46:52.717Z,98038.89
2019-03-03T05:49:22.611Z,98041.72
2019-03-03T05:51:52.560Z,98046.81
2019-03-03T05:54:22.452Z,98041.80
2019-03-03T05:56:52.366Z,98039.72
2019-03-03T05:59:22.281Z,98041.46
2019-03-03T06:01:52.201Z,98038.89
2019-03-03T06:04:22.087Z,98036.41
2019-03-03T06:06:52.047Z,98036.52
2019-03-03T06:09:21.943Z,98036.71
2019-03-03T06:11:51.906Z,98034.19
2019-03-03T06:14:22.020Z,98040.00
2019-03-03T06:16:51.921Z,98038.73
2019-03-03T06:19:21.874Z,98040.97
2019-03-03T06:21:51.748Z,98028.95
2019-03-03T06:24:21.645Z,98035.45
2019-03-03T06:26:51.516Z,98035.58
2019-03-03T06:29:21.414Z,98040.59
2019-03-03T06:31:51.307Z,98035.36
2019-03-03T06:34:21.208Z,98044.09
2019-03-03T06:36:51.195Z,98037.48
2019-03-03T06:39:21.084Z,98045.36
2019-03-03T06:41:50.976Z,98040.81
2019-03-03T06:44:20.866Z,98034.20
2019-03-03T06:46:50.751Z,98032.15
2019-03-03T06:49:20.661Z,98024.64
2019-03-03T06:51:50.587Z,98018.03
2019-03-03T06:54:20.481Z,98015.38
2019-03-03T06:56:50.372Z,98014.55
2019-03-03T06:59:20.277Z,98002.11
2019-03-03T07:01:50.421Z,98003.84
2019-03-03T07:04:20.307Z,97999.86
2019-03-03T07:06:50.258Z,98001.72
2019-03-03T07:09:20.144Z,97995.82
2019-03-03T07:11:50.261Z,97995.31
2019-03-03T07:14:20.179Z,97997.55
2019-03-03T07:16:50.062Z,97998.70
2019-03-03T07:19:19.950Z,98001.12
2019-03-03T07:21:50.692Z,98000.86
2019-03-03T07:24:20.591Z,98006.50
2019-03-03T07:26:50.539Z,98008.64
2019-03-03T07:29:20.563Z,98008.98
2019-03-03T07:31:50.451Z,98009.25
2019-03-03T07:34:20.343Z,98010.64
2019-03-03T07:36:50.324Z,98010.50
2019-03-03T07:39:20.777Z,98010.17
2019-03-03T07:41:50.738Z,98007.61
2019-03-03T07:44:20.662Z,98012.86
2019-03-03T07:46:50.541Z,98011.61
2019-03-03T07:49:20.451Z,98017.93
2019-03-03T07:51:50.645Z,98026.20
2019-03-03T07:54:20.572Z,98031.47
2019-03-03T07:56:50.465Z,98024.14
2019-03-03T07:59:20.385Z,98018.53
2019-03-03T08:01:50.363Z,98020.66
2019-03-03T08:04:20.273Z,98024.64
2019-03-03T08:06:50.163Z,98017.94
2019-03-03T08:09:20.064Z,98023.40
2019-03-03T08:11:49.984Z,98027.69
2019-03-03T08:14:19.895Z,98030.77
2019-03-03T08:16:49.807Z,98025.57
2019-03-03T08:19:19.697Z,98032.73
2019-03-03T08:21:49.601Z,98027.50
2019-03-03T08:24:19.475Z,98023.56
2019-03-03T08:26:49.356Z,98023.26
2019-03-03T08:29:19.247Z,98029.11
2019-03-03T08:31:49.418Z,98022.02
2019-03-03T08:34:19.371Z,98018.39
2019-03-03T08:36:49.344Z,98020.84
2019-03-03T08:39:19.231Z,98027.02
2019-03-03T08:41:53.259Z,98024.95
2019-03-03T08:44:36.375Z,98018.19
2019-03-03T08:47:28.252Z,98019.17
2019-03-03T08:50:20.396Z,98016.80
2019-03-03T08:53:07.599Z,98021.52
2019-03-03T08:55:54.768Z,98025.72
2019-03-03T08:58:30.689Z,98029.27
2019-03-03T09:01:22.815Z,98028.34
2019-03-03T09:04:02.313Z,98021.67
2019-03-03T09:06:50.059Z,98019.27
2019-03-03T09:09:35.118Z,98021.83
2019-03-03T09:12:11.997Z,98015.53
2019-03-03T09:14:59.592Z,98012.69
2019-03-03T09:17:36.322Z,98012.79
2019-03-03T09:20:26.657Z,98019.94
2019-03-03T09:23:07.834Z,98019.83
2019-03-03T09:25:55.425Z,98023.80
2019-03-03T09:28:43.055Z,98026.45
2019-03-03T09:31:41.334Z,98028.65
2019-03-03T09:34:24.129Z,98032.41
2019-03-03T09:37:09.138Z,98025.38
2019-03-03T09:39:56.711Z,98032.23
2019-03-03T09:42:51.898Z,98029.85
2019-03-03T09:45:39.536Z,98030.64
2019-03-03T09:48:31.543Z,98033.99
2019-03-03T09:51:10.308Z,98029.27
2019-03-03T09:53:47.067Z,98029.46
2019-03-03T09:56:33.686Z,98032.61
2019-03-03T09:59:30.938Z,98037.91
2019-03-03T10:02:23.017Z,98032.91
2019-03-03T10:46:55.880Z,98024.95
2019-03-03T12:44:53.787Z,97884.59
2019-03-03T13:36:09.412Z,97789.06
2019-03-03T13:38:47.784Z,97787.37
2019-03-03T13:47:53.178Z,97778.83
2019-03-03T14:02:54.281Z,97767.63
2019-03-03T14:05:25.016Z,97765.66
2019-03-03T14:07:55.659Z,97756.89
2019-03-03T14:13:57.704Z,97744.13
2019-03-03T14:23:47.109Z,97742.75
2019-03-03T14:26:17.161Z,97749.65
2019-03-03T14:35:10.892Z,97721.25
2019-03-03T14:37:40.960Z,97716.30
2019-03-03T14:40:12.611Z,97700.75
2019-03-03T15:05:47.884Z,97669.29
2019-03-03T15:08:17.822Z,97663.05
2019-03-03T15:10:47.708Z,97657.57
2019-03-03T15:13:17.693Z,97656.74
2019-03-03T15:15:47.671Z,97655.64
2019-03-03T15:18:17.846Z,97654.28
2019-03-03T15:20:47.920Z,97675.97
2019-03-03T15:23:17.892Z,97671.92
2019-03-03T15:25:47.979Z,97675.69
2019-03-03T15:28:17.892Z,97665.77
2019-03-03T15:30:47.938Z,97661.50
2019-03-03T15:33:17.829Z,97656.23
2019-03-03T15:35:47.734Z,97647.44
2019-03-03T15:38:17.695Z,97645.58
2019-03-03T15:40:47.804Z,97635.92
2019-03-03T15:43:17.839Z,97624.70
2019-03-03T15:45:47.757Z,97628.55
2019-03-03T15:48:17.949Z,97629.67
2019-03-03T15:50:47.902Z,97632.44
2019-03-03T15:53:17.797Z,97632.52
2019-03-03T15:55:47.774Z,97626.20
2019-03-03T15:58:17.737Z,97621.88
2019-03-03T16:00:47.642Z,97627.34
2019-03-03T16:03:17.542Z,97625.56
2019-03-03T16:05:47.446Z,97622.15
2019-03-03T16:08:17.345Z,97623.00
2019-03-03T16:10:47.278Z,97612.62
2019-03-03T16:13:17.191Z,97615.73
2019-03-03T16:15:47.102Z,97617.36
2019-03-03T16:18:17.062Z,97614.88
2019-03-03T16:20:47.054Z,97609.65
2019-03-03T16:23:16.959Z,97605.23
2019-03-03T16:25:47.117Z,97601.63
2019-03-03T16:28:17.310Z,97598.02
2019-03-03T16:30:47.218Z,97594.92
2019-03-03T16:33:20.679Z,97590.55
2019-03-03T16:35:48.707Z,97593.33
2019-03-03T16:38:18.624Z,97589.36
2019-03-03T16:40:48.513Z,97568.38
2019-03-03T16:43:18.390Z,97567.48
2019-03-03T16:45:48.551Z,97561.59
2019-03-03T16:48:18.436Z,97550.19
2019-03-03T16:54:02.452Z,97547.70
2019-03-03T17:03:34.453Z,97541.00
2019-03-03T17:06:04.450Z,97541.06
2019-03-03T17:15:55.591Z,97533.77
2019-03-03T17:18:25.863Z,97530.16
2019-03-03T17:50:13.187Z,97520.05
2019-03-03T17:52:44.836Z,97530.62
2019-03-03T18:02:46.317Z,97550.23
2019-03-03T18:05:18.178Z,97551.92
2019-03-03T18:07:48.506Z,97552.92
2019-03-03T18:10:18.693Z,97550.27
2019-03-03T18:12:48.617Z,97549.70
2019-03-03T18:15:18.810Z,97552.25
2019-03-03T18:17:50.444Z,97550.56
2019-03-03T18:20:20.772Z,97549.80
2019-03-03T18:22:51.141Z,97542.55
2019-03-03T18:25:21.151Z,97537.55
2019-03-03T18:27:51.192Z,97529.72
2019-03-03T18:30:22.558Z,97525.59
2019-03-03T18:32:52.583Z,97513.66
2019-03-03T18:35:22.607Z,97499.11
2019-03-03T18:37:52.679Z,97496.62
2019-03-03T18:40:22.820Z,97495.37
2019-03-03T18:42:52.886Z,97489.88
2019-03-03T18:45:22.920Z,97480.53
2019-03-03T18:47:53.066Z,97482.48
2019-03-03T18:50:23.033Z,97484.09
2019-03-03T18:52:53.104Z,97481.67
2019-03-03T18:55:23.124Z,97493.14
2019-03-03T18:57:53.260Z,97493.87
2019-03-03T19:00:24.798Z,97482.56
2019-03-03T19:02:54.866Z,97474.91
2019-03-03T19:05:24.937Z,97477.87
2019-03-03T19:07:54.837Z,97476.10
2019-03-03T19:10:25.593Z,97480.70
2019-03-03T19:12:55.609Z,97484.70
2019-03-03T19:15:25.681Z,97483.98
2019-03-03T19:17:55.548Z,97485.31
2019-03-03T21:29:30.157Z,97328.02
2019-03-03T21:48:50.235Z,97263.83
2019-03-03T22:17:17.388Z,97241.69
2019-03-03T22:19:47.346Z,97245.94
2019-03-03T22:22:17.236Z,97241.96
2019-03-03T22:24:47.119Z,97228.83
2019-03-03T22:27:17.017Z,97223.66
2019-03-03T22:29:46.918Z,97216.05
2019-03-03T22:32:16.813Z,97203.39
2019-03-03T22:38:38.226Z,97189.25
2019-03-03T22:41:08.148Z,97185.05
2019-03-03T22:43:38.050Z,97179.86
2019-03-03T22:57:37.361Z,97171.55
2019-03-03T23:00:20.371Z,97141.31
2019-03-03T23:02:50.341Z,97134.07
2019-03-03T23:10:12.654Z,97133.61
2019-03-03T23:20:16.897Z,97107.41
2019-03-03T23:23:53.408Z,97106.05
2019-03-03T23:26:23.717Z,97095.55
2019-03-03T23:28:53.776Z,97080.66
2019-03-03T23:35:14.755Z,97080.23
2019-03-03T23:37:44.683Z,97076.69
2019-03-03T23:40:14.782Z,97075.16
2019-03-03T23:42:44.685Z,97065.31
2019-03-03T23:49:05.539Z,97063.94
2019-03-03T23:51:35.436Z,97067.53
